Time;durP1;ratioP1;P1;durP2;ratioP2;P2;SDS_P1;SDS_P2;PMS_P1;PMS_P2;Temp;Humidity;BMP_temperature;BMP_pressure;BME280_temperature;BME280_humidity;BME280_pressure;Samples;Min_cycle;Max_cycle;Signal;HPM_P1;HPM_P2
2022/09/21 00:01:11;;;;;;;5.45;2.75;;;;;;;9.57;100.00;99502.27;1695343;84;21100;-39
2022/09/21 00:03:40;;;;;;;3.00;2.72;;;;;;;9.61;100.00;99510.47;1694857;85;21001;-38
2022/09/21 00:06:13;;;;;;;3.92;3.62;;;;;;;9.65;100.00;99504.80;1709787;82;21122;-38
2022/09/21 00:08:40;;;;;;;4.15;3.15;;;;;;;9.67;100.00;99505.20;1724593;82;21082;-39
2022/09/21 00:11:13;;;;;;;3.15;2.95;;;;;;;9.70;100.00;99505.63;1724374;82;21097;-38
2022/09/21 00:13:40;;;;;;;7.35;3.25;;;;;;;9.72;100.00;99509.08;1724612;82;21019;-39
2022/09/21 00:16:07;;;;;;;5.90;3.30;;;;;;;9.72;100.00;99509.94;1731905;82;21567;-46
2022/09/21 00:18:34;;;;;;;3.70;3.10;;;;;;;9.72;100.00;99507.77;1739222;82;21363;-38
2022/09/21 00:21:08;;;;;;;2.85;2.60;;;;;;;9.72;100.00;99507.77;1738849;82;21042;-46
2022/09/21 00:23:37;;;;;;;6.05;3.00;;;;;;;9.71;100.00;99509.97;1738770;82;21018;-46
2022/09/21 00:26:07;;;;;;;3.70;3.25;;;;;;;9.69;100.00;99501.28;1738753;82;21132;-47
2022/09/21 00:28:34;;;;;;;4.28;2.87;;;;;;;9.71;100.00;99504.73;1739164;82;21370;-40
2022/09/21 00:31:04;;;;;;;5.62;2.77;;;;;;;9.72;100.00;99508.64;1738752;82;21085;-46
2022/09/21 00:33:31;;;;;;;3.50;2.80;;;;;;;9.74;100.00;99504.70;1738830;82;21073;-47
2022/09/21 00:36:05;;;;;;;5.65;2.65;;;;;;;9.77;100.00;99512.52;1737265;81;21210;-47
2022/09/21 00:42:33;;;;;;;4.75;3.20;;;;;;;9.79;100.00;99511.61;1801281;79;23198;-44
2022/09/21 00:45:00;;;;;;;3.17;2.80;;;;;;;9.75;100.00;99511.23;1755290;80;21064;-37
2022/09/21 00:47:37;;;;;;;2.33;2.12;;;;;;;9.74;100.00;99509.51;1708109;83;21013;-45
2022/09/21 00:50:08;;;;;;;3.77;2.83;;;;;;;9.73;100.00;99506.89;1711400;82;21103;-45
2022/09/21 00:52:39;;;;;;;2.98;2.77;;;;;;;9.72;100.00;99507.33;1753055;82;21021;-39
2022/09/21 00:55:12;;;;;;;2.70;2.50;;;;;;;9.72;100.00;99511.69;1752773;82;21107;-39
2022/09/21 00:57:39;;;;;;;4.03;2.50;;;;;;;9.72;100.00;99513.00;1752286;82;21058;-40
2022/09/21 01:00:08;;;;;;;2.85;2.55;;;;;;;9.71;100.00;99507.35;1751481;82;21630;-46
2022/09/21 01:02:37;;;;;;;2.80;2.50;;;;;;;9.71;100.00;99504.73;1738173;82;21051;-38
2022/09/21 01:05:06;;;;;;;3.33;2.72;;;;;;;9.73;100.00;99501.22;1739232;82;21041;-45
2022/09/21 01:07:36;;;;;;;2.75;2.45;;;;;;;9.74;100.00;99509.51;1752651;82;21048;-46
2022/09/21 01:10:08;;;;;;;2.37;2.17;;;;;;;9.73;100.00;99505.58;1753069;82;21618;-38
2022/09/21 01:13:06;;;;;;;4.05;2.62;;;;;;;9.73;100.00;99505.58;1752569;81;21100;-38
2022/09/21 01:15:48;;;;;;;3.62;2.52;;;;;;;9.71;100.00;99509.97;1748428;82;21180;-47
2022/09/21 01:18:36;;;;;;;2.98;2.72;;;;;;;9.69;100.00;99506.07;1738202;82;21538;-37
2022/09/21 01:21:19;;;;;;;3.33;3.02;;;;;;;9.68;100.00;99505.61;1737897;82;21101;-45
2022/09/21 01:24:09;;;;;;;3.80;2.60;;;;;;;9.66;100.00;99511.75;1738001;82;20998;-38
2022/09/21 01:27:03;;;;;;;3.10;2.80;;;;;;;9.63;100.00;99506.13;1738022;82;21066;-46
2022/09/21 01:29:38;;;;;;;3.12;2.80;;;;;;;9.63;100.00;99498.73;1737467;82;21141;-46
2022/09/21 01:32:36;;;;;;;5.67;3.22;;;;;;;9.59;100.00;99502.66;1738007;82;21747;-44
2022/09/21 01:35:14;;;;;;;2.80;2.55;;;;;;;9.57;100.00;99504.43;1737937;82;21553;-39
2022/09/21 01:37:46;;;;;;;3.05;2.30;;;;;;;9.57;100.00;99499.20;1738051;82;21592;-39
2022/09/21 01:40:23;;;;;;;2.97;2.77;;;;;;;9.55;100.00;99487.02;1740220;82;21532;-46
2022/09/21 01:42:50;;;;;;;2.60;2.40;;;;;;;9.54;100.00;99490.52;1715481;83;21031;-37
2022/09/21 01:45:22;;;;;;;2.00;1.90;;;;;;;9.55;100.00;99493.55;1708383;84;21147;-45
2022/09/21 01:47:48;;;;;;;2.75;2.55;;;;;;;9.55;100.00;99492.25;1675173;86;21072;-46
2022/09/21 01:50:17;;;;;;;2.87;2.55;;;;;;;9.54;100.00;99495.30;1673463;84;21115;-46
2022/09/21 01:52:55;;;;;;;2.67;2.47;;;;;;;9.55;100.00;99500.08;1674766;86;21119;-46
2022/09/21 01:55:28;;;;;;;3.65;2.47;;;;;;;9.54;100.00;99503.58;1681086;84;21097;-38
2022/09/21 01:58:00;;;;;;;3.42;3.10;;;;;;;9.54;100.00;99495.30;1708330;84;21068;-45
2022/09/21 02:00:27;;;;;;;6.10;5.45;;;;;;;9.57;100.00;99507.04;1709761;84;21119;-38
2022/09/21 02:03:08;;;;;;;4.25;3.85;;;;;;;9.57;100.00;99501.82;1715226;84;21012;-38
2022/09/21 02:05:35;;;;;;;3.77;3.47;;;;;;;9.55;100.00;99495.72;1714828;84;21111;-39
2022/09/21 02:08:02;;;;;;;4.00;3.50;;;;;;;9.54;100.00;99500.97;1715068;84;21012;-46
2022/09/21 02:10:38;;;;;;;3.00;2.80;;;;;;;9.53;100.00;99503.16;1714880;84;21063;-40
2022/09/21 02:13:05;;;;;;;6.20;2.70;;;;;;;9.51;100.00;99495.34;1687468;84;21016;-38
2022/09/21 02:15:59;;;;;;;3.15;2.50;;;;;;;9.51;100.00;99495.79;1712852;84;21083;-45
2022/09/21 02:19:11;;;;;;;6.92;6.33;;;;;;;9.51;100.00;99496.66;1689978;84;21688;-40
2022/09/21 02:21:56;;;;;;;6.63;5.17;;;;;;;9.51;100.00;99501.88;1708331;84;21537;-38
2022/09/21 02:24:43;;;;;;;5.60;3.92;;;;;;;9.48;100.00;99504.94;1707903;84;21309;-37
2022/09/21 02:27:30;;;;;;;5.08;3.60;;;;;;;9.44;100.00;99501.91;1707798;84;21054;-38
2022/09/21 02:30:16;;;;;;;3.58;2.30;;;;;;;9.40;100.00;99511.53;1708033;84;21113;-45
2022/09/21 02:33:08;;;;;;;3.27;2.33;;;;;;;9.37;100.00;99509.38;1708098;84;21114;-45
2022/09/21 02:36:01;;;;;;;1.72;1.50;;;;;;;9.31;100.00;99515.50;1707950;84;21062;-38
2022/09/21 02:38:45;;;;;;;2.43;1.77;;;;;;;9.27;100.00;99501.59;1708219;84;21078;-38
2022/09/21 02:41:29;;;;;;;1.77;1.67;;;;;;;9.25;100.00;99505.11;1708133;83;21105;-45
2022/09/21 02:44:06;;;;;;;1.98;1.65;;;;;;;9.22;100.00;99505.11;1709169;84;21001;-45
2022/09/21 02:46:46;;;;;;;1.72;1.60;;;;;;;9.23;100.00;99505.57;1719865;83;21569;-37
2022/09/21 02:49:25;;;;;;;2.60;2.15;;;;;;;9.22;100.00;99512.94;1724498;82;21047;-45
2022/09/21 02:51:55;;;;;;;2.08;1.90;;;;;;;9.22;100.00;99515.55;1724052;82;21070;-37
2022/09/21 02:54:26;;;;;;;3.00;2.17;;;;;;;9.21;100.00;99513.83;1724572;82;21019;-45
2022/09/21 02:56:53;;;;;;;3.98;2.00;;;;;;;9.19;100.00;99512.98;1724441;82;21055;-38
2022/09/21 02:59:22;;;;;;;2.65;2.20;;;;;;;9.17;100.00;99516.92;1724409;82;21079;-45
2022/09/21 03:01:47;;;;;;;2.20;2.00;;;;;;;9.15;100.00;99516.04;1710450;83;21677;-45
2022/09/21 03:04:15;;;;;;;4.62;2.30;;;;;;;9.13;100.00;99523.02;1721866;83;21071;-38
2022/09/21 03:06:41;;;;;;;2.22;1.90;;;;;;;9.11;100.00;99522.18;1723698;82;21617;-45
2022/09/21 03:09:08;;;;;;;2.22;2.00;;;;;;;9.10;100.00;99523.02;1724525;82;21456;-37
2022/09/21 03:11:35;;;;;;;3.40;3.00;;;;;;;9.10;100.00;99524.33;1724417;82;21629;-38
2022/09/21 03:14:07;;;;;;;2.15;1.95;;;;;;;9.09;100.00;99530.43;1724327;82;21055;-45
2022/09/21 03:16:35;;;;;;;2.67;2.10;;;;;;;9.11;100.00;99527.84;1734579;82;21073;-45
2022/09/21 03:19:04;;;;;;;2.22;1.70;;;;;;;9.10;100.00;99529.55;1739166;82;21018;-39
2022/09/21 03:21:31;;;;;;;2.72;2.30;;;;;;;9.11;100.00;99529.14;1739105;82;21093;-38
2022/09/21 03:23:57;;;;;;;2.60;2.10;;;;;;;9.13;100.00;99526.08;1738834;82;21343;-38
2022/09/21 03:26:24;;;;;;;2.33;2.12;;;;;;;9.15;100.00;99524.31;1738816;82;21096;-38
2022/09/21 03:28:52;;;;;;;2.70;2.50;;;;;;;9.18;100.00;99526.91;1739133;82;21541;-44
2022/09/21 03:31:19;;;;;;;3.47;2.10;;;;;;;9.20;100.00;99522.09;1738749;82;21065;-45
2022/09/21 03:33:45;;;;;;;2.62;2.08;;;;;;;9.23;100.00;99526.01;1739140;82;21493;-45
2022/09/21 03:36:12;;;;;;;3.55;2.15;;;;;;;9.24;100.00;99526.44;1739010;82;21085;-38
2022/09/21 03:38:39;;;;;;;3.40;2.12;;;;;;;9.28;100.00;99526.84;1739166;82;21501;-45
2022/09/21 03:41:06;;;;;;;2.17;1.98;;;;;;;9.29;100.00;99524.66;1739391;81;21120;-38
2022/09/21 03:43:33;;;;;;;2.33;1.92;;;;;;;9.30;100.00;99528.13;1753134;82;21025;-45
2022/09/21 03:45:59;;;;;;;2.90;2.17;;;;;;;9.30;100.00;99521.61;1752821;82;21107;-37
2022/09/21 03:48:26;;;;;;;2.02;1.62;;;;;;;9.31;100.00;99520.28;1753056;82;21024;-38
2022/09/21 03:50:52;;;;;;;2.52;1.98;;;;;;;9.32;100.00;99521.14;1752949;82;21492;-46
2022/09/21 03:53:19;;;;;;;2.12;1.80;;;;;;;9.32;100.00;99523.75;1752807;82;21611;-45
2022/09/21 03:55:45;;;;;;;1.62;1.52;;;;;;;9.33;100.00;99517.66;1752745;82;21092;-45
2022/09/21 03:58:12;;;;;;;1.77;1.65;;;;;;;9.34;100.00;99524.63;1752919;82;21607;-38
2022/09/21 04:00:39;;;;;;;2.05;1.50;;;;;;;9.35;100.00;99514.61;1752735;82;21092;-45
2022/09/21 04:03:06;;;;;;;1.60;1.47;;;;;;;9.36;100.00;99522.87;1752955;82;21084;-46
2022/09/21 04:05:33;;;;;;;2.20;1.70;;;;;;;9.38;100.00;99524.15;1752712;82;21069;-38
2022/09/21 04:08:01;;;;;;;1.45;1.35;;;;;;;9.38;100.00;99531.55;1752930;82;21120;-38
2022/09/21 04:10:31;;;;;;;3.08;1.50;;;;;;;9.38;100.00;99534.16;1749790;82;21075;-45
2022/09/21 04:13:00;;;;;;;1.62;1.47;;;;;;;9.38;100.00;99527.63;1740824;82;21054;-37
2022/09/21 04:15:28;;;;;;;1.62;1.32;;;;;;;9.38;100.00;99539.38;1740706;82;21122;-45
2022/09/21 04:17:55;;;;;;;1.60;1.50;;;;;;;9.39;100.00;99537.63;1740631;82;21121;-38
2022/09/21 04:20:22;;;;;;;1.35;1.25;;;;;;;9.40;100.00;99543.30;1743265;82;21049;-38
2022/09/21 04:22:50;;;;;;;1.50;1.40;;;;;;;9.42;100.00;99546.31;1750243;82;21088;-37
2022/09/21 04:25:17;;;;;;;1.87;1.37;;;;;;;9.43;100.00;99555.02;1747853;82;21104;-45
2022/09/21 04:27:44;;;;;;;2.67;1.52;;;;;;;9.43;100.00;99544.13;1751585;82;21156;-43
2022/09/21 04:30:12;;;;;;;1.30;1.27;;;;;;;9.43;100.00;99540.21;1723614;82;21057;-35
2022/09/21 04:32:39;;;;;;;1.77;1.30;;;;;;;9.44;100.00;99545.86;1723877;82;21587;-42
2022/09/21 04:35:06;;;;;;;1.65;1.30;;;;;;;9.44;100.00;99548.91;1743878;82;21151;-42
2022/09/21 04:37:33;;;;;;;1.52;1.20;;;;;;;9.43;100.00;99543.27;1766540;80;21016;-35
2022/09/21 04:40:00;;;;;;;1.75;1.65;;;;;;;9.38;100.00;99552.42;1742357;80;21063;-36
2022/09/21 04:42:28;;;;;;;1.35;1.25;;;;;;;9.36;100.00;99547.67;1708259;82;21085;-36
2022/09/21 04:44:54;;;;;;;1.15;1.05;;;;;;;9.35;100.00;99542.02;1738128;80;21605;-42
2022/09/21 04:47:22;;;;;;;1.62;1.52;;;;;;;9.35;100.00;99541.16;1745332;80;21058;-36
2022/09/21 04:49:48;;;;;;;1.55;1.20;;;;;;;9.36;100.00;99546.36;1741750;82;21605;-36
2022/09/21 04:52:15;;;;;;;1.30;1.20;;;;;;;9.37;100.00;99554.62;1748037;80;20973;-42
2022/09/21 04:54:41;;;;;;;1.15;1.15;;;;;;;9.38;100.00;99557.65;1744682;80;21060;-41
2022/09/21 04:57:08;;;;;;;1.70;1.60;;;;;;;9.38;100.00;99556.34;1743187;80;21060;-42
2022/09/21 04:59:36;;;;;;;2.85;1.52;;;;;;;9.38;100.00;99555.48;1682022;84;21435;-44
2022/09/21 05:02:04;;;;;;;1.87;1.77;;;;;;;9.40;100.00;99551.14;1741383;80;21710;-43
2022/09/21 05:04:31;;;;;;;2.40;1.98;;;;;;;9.42;100.00;99554.15;1735609;82;21112;-43
2022/09/21 05:06:58;;;;;;;13.48;3.90;;;;;;;9.45;100.00;99552.84;1736967;80;21012;-37
2022/09/21 05:12:09;;;;;;;8.88;3.92;;;;;;;9.53;100.00;99555.38;1733671;80;21066;-36
2022/09/21 05:14:37;;;;;;;2.77;2.10;;;;;;;9.55;100.00;99554.48;1733063;82;21062;-37
2022/09/21 05:17:03;;;;;;;1.20;1.10;;;;;;;9.59;100.00;99560.12;1733609;80;21008;-36
2022/09/21 05:19:30;;;;;;;3.40;1.70;;;;;;;9.59;100.00;99569.25;1728518;82;21074;-43
2022/09/21 05:21:56;;;;;;;1.37;1.10;;;;;;;9.61;100.00;99556.17;1728655;80;21072;-37
2022/09/21 05:24:23;;;;;;;1.92;1.20;;;;;;;9.61;100.00;99560.09;1732682;82;20954;-35
2022/09/21 05:26:53;;;;;;;1.57;1.20;;;;;;;9.62;100.00;99559.66;1727451;80;21021;-37
2022/09/21 05:29:20;;;;;;;1.20;1.10;;;;;;;9.64;100.00;99567.92;1729455;82;20999;-36
2022/09/21 05:31:50;;;;;;;1.00;0.90;;;;;;;9.67;100.00;99557.88;1730805;82;20973;-37
2022/09/21 05:34:50;;;;;;;5.97;0.78;;;;;;;9.69;100.00;99560.92;1729227;80;21449;-43
2022/09/21 05:37:46;;;;;;;0.70;0.70;;;;;;;9.73;100.00;99563.91;1725302;80;21093;-36
2022/09/21 05:40:13;;;;;;;2.05;0.90;;;;;;;9.76;100.00;99564.34;1730577;80;21554;-36
2022/09/21 05:42:40;;;;;;;0.80;0.72;;;;;;;9.80;100.00;99577.81;1723967;80;21083;-43
2022/09/21 05:45:15;;;;;;;0.90;0.75;;;;;;;9.83;100.00;99574.72;1716683;82;21639;-42
2022/09/21 05:47:53;;;;;;;0.78;0.78;;;;;;;9.85;100.00;99579.92;1713533;81;21701;-37
2022/09/21 05:50:43;;;;;;;1.32;0.72;;;;;;;9.86;100.00;99571.23;1718798;82;21088;-37
2022/09/21 05:53:19;;;;;;;0.60;0.60;;;;;;;9.91;100.00;99581.63;1718609;80;21469;-43
2022/09/21 05:56:00;;;;;;;1.15;0.70;;;;;;;9.95;100.00;99580.72;1721000;81;21017;-43
2022/09/21 05:59:03;;;;;;;0.95;0.60;;;;;;;10.01;100.00;99580.22;1716229;81;21014;-43
2022/09/21 06:02:00;;;;;;;1.25;0.70;;;;;;;10.11;100.00;99586.24;1723103;81;21576;-42
2022/09/21 06:04:29;;;;;;;2.70;0.85;;;;;;;10.25;100.00;99586.13;1722370;81;21663;-43
2022/09/21 06:06:58;;;;;;;1.22;0.62;;;;;;;10.34;100.00;99592.14;1721176;81;21651;-42
2022/09/21 06:09:27;;;;;;;1.62;0.85;;;;;;;10.42;100.00;99592.05;1718439;82;21021;-37
2022/09/21 06:11:54;;;;;;;1.30;0.60;;;;;;;10.47;100.00;99589.40;1719952;81;21009;-42
2022/09/21 06:14:24;;;;;;;1.70;0.90;;;;;;;10.47;99.69;99605.09;1719341;82;20994;-36
2022/09/21 06:16:49;;;;;;;0.80;0.80;;;;;;;10.47;100.00;99607.27;1727466;81;21031;-36
2022/09/21 06:19:16;;;;;;;1.30;0.95;;;;;;;10.48;100.00;99618.14;1721921;81;21005;-34
2022/09/21 06:21:43;;;;;;;1.77;1.00;;;;;;;10.47;98.74;99615.55;1717185;82;21021;-37
2022/09/21 06:24:10;;;;;;;2.17;1.00;;;;;;;10.43;98.89;99617.32;1714813;81;21075;-36
2022/09/21 06:26:37;;;;;;;1.10;1.00;;;;;;;10.42;98.99;99616.90;1714526;81;21377;-44
2022/09/21 06:29:04;;;;;;;0.88;0.80;;;;;;;10.43;99.24;99633.45;1719218;82;20982;-43
2022/09/21 06:31:31;;;;;;;1.72;1.02;;;;;;;10.41;98.63;99626.08;1711478;82;20994;-36
2022/09/21 06:33:58;;;;;;;1.40;1.30;;;;;;;10.42;99.09;99639.57;1716306;82;21035;-42
2022/09/21 06:36:25;;;;;;;1.07;1.07;;;;;;;10.39;99.05;99631.33;1676002;82;21627;-42
2022/09/21 06:38:52;;;;;;;2.47;1.30;;;;;;;10.37;99.10;99645.70;1706127;81;21045;-36
2022/09/21 06:41:19;;;;;;;2.25;1.22;;;;;;;10.35;98.48;99637.02;1714377;82;21095;-36
2022/09/21 06:43:45;;;;;;;1.35;1.25;;;;;;;10.32;98.59;99637.06;1716794;81;21060;-35
2022/09/21 06:46:12;;;;;;;1.20;1.07;;;;;;;10.32;98.42;99646.62;1716120;81;21023;-35
2022/09/21 06:48:39;;;;;;;1.30;1.20;;;;;;;10.30;98.67;99639.25;1722733;81;21009;-36
2022/09/21 06:51:06;;;;;;;1.25;1.15;;;;;;;10.30;99.24;99640.11;1714673;81;21620;-36
2022/09/21 06:53:33;;;;;;;2.20;1.00;;;;;;;10.32;99.65;99646.22;1715912;81;21068;-36
2022/09/21 06:56:19;;;;;;;1.50;1.15;;;;;;;10.32;99.50;99638.37;1714726;81;21089;-36
2022/09/21 06:58:46;;;;;;;1.75;1.62;;;;;;;10.36;99.85;99651.81;1721517;81;21012;-36
2022/09/21 07:01:14;;;;;;;1.40;1.30;;;;;;;10.38;98.48;99647.91;1660824;85;21619;-43
2022/09/21 07:03:41;;;;;;;1.60;1.50;;;;;;;10.40;99.34;99652.67;1678306;83;21001;-43
2022/09/21 07:06:14;;;;;;;1.22;1.12;;;;;;;10.46;99.52;99650.44;1680025;84;21463;-36
2022/09/21 07:08:42;;;;;;;1.70;1.60;;;;;;;10.52;99.91;99653.86;1675295;83;21080;-43
2022/09/21 07:11:09;;;;;;;1.85;1.37;;;;;;;10.60;99.90;99653.32;1677172;83;21084;-42
2022/09/21 07:13:35;;;;;;;1.50;1.40;;;;;;;10.65;98.77;99659.38;1679329;84;21029;-37
2022/09/21 07:16:06;;;;;;;1.50;1.40;;;;;;;10.66;98.04;99660.23;1678657;83;21089;-36
2022/09/21 07:18:35;;;;;;;4.80;1.40;;;;;;;10.66;98.28;99668.95;1633945;84;21160;-36
2022/09/21 07:21:03;;;;;;;2.05;1.85;;;;;;;10.66;97.90;99654.56;1674789;83;21058;-42
2022/09/21 07:23:30;;;;;;;2.15;1.95;;;;;;;10.67;97.78;99668.54;1673221;84;21061;-43
2022/09/21 07:26:05;;;;;;;2.30;2.10;;;;;;;10.65;97.92;99667.67;1678743;83;21622;-42
2022/09/21 07:28:31;;;;;;;2.37;2.15;;;;;;;10.65;98.36;99666.36;1676635;83;21764;-36
2022/09/21 07:30:58;;;;;;;2.50;2.30;;;;;;;10.64;98.24;99662.88;1676500;84;21040;-36
2022/09/21 07:33:25;;;;;;;2.08;1.95;;;;;;;10.66;97.97;99666.78;1682717;83;21023;-36
2022/09/21 07:35:52;;;;;;;4.08;2.12;;;;;;;10.73;97.88;99672.41;1674827;84;21446;-36
2022/09/21 07:38:19;;;;;;;2.05;1.95;;;;;;;10.78;97.97;99664.48;1676972;83;21595;-36
2022/09/21 07:40:47;;;;;;;3.05;2.50;;;;;;;10.83;97.70;99667.47;1664413;84;21054;-36
2022/09/21 07:43:14;;;;;;;3.25;2.80;;;;;;;10.93;97.78;99666.94;1678143;83;21112;-43
2022/09/21 07:45:41;;;;;;;3.30;3.00;;;;;;;11.03;97.80;99664.64;1672554;84;21171;-36
2022/09/21 07:48:08;;;;;;;2.67;2.47;;;;;;;11.13;97.09;99670.61;1684964;83;21029;-39
2022/09/21 07:50:35;;;;;;;4.62;3.12;;;;;;;11.19;96.34;99675.36;1684766;83;21513;-35
2022/09/21 07:53:11;;;;;;;4.15;3.75;;;;;;;11.21;94.62;99677.95;1682021;83;21088;-43
2022/09/21 07:55:37;;;;;;;8.90;3.95;;;;;;;11.23;94.14;99676.62;1686540;83;21045;-42
2022/09/21 08:07:27;;;;;;;4.28;3.87;;;;;;;11.48;92.81;99664.06;1872010;74;22375;-41
2022/09/21 08:09:55;;;;;;;5.30;4.80;;;;;;;11.49;92.73;99664.06;1844597;75;21051;-36
2022/09/21 08:12:22;;;;;;;4.62;4.00;;;;;;;11.59;93.02;99652.54;1822190;77;21432;-39
2022/09/21 08:14:50;;;;;;;5.30;4.80;;;;;;;11.70;92.13;99657.63;1778714;79;21099;-36
2022/09/21 08:17:17;;;;;;;5.15;4.60;;;;;;;11.78;91.09;99653.61;1787864;78;21282;-35
2022/09/21 08:19:43;;;;;;;6.05;4.33;;;;;;;11.81;89.65;99653.55;1756191;80;21009;-36
2022/09/21 08:22:11;;;;;;;4.65;4.25;;;;;;;11.82;89.12;99669.27;1761480;80;20983;-37
2022/09/21 08:24:43;;;;;;;5.00;4.50;;;;;;;11.83;89.60;99663.58;1769532;79;21151;-36
2022/09/21 08:27:11;;;;;;;5.10;4.60;;;;;;;11.83;89.95;99662.27;1766344;79;21097;-37
2022/09/21 08:29:39;;;;;;;5.47;4.92;;;;;;;11.85;90.57;99665.31;1725765;80;21507;-43
2022/09/21 08:32:06;;;;;;;4.80;4.30;;;;;;;11.83;89.23;99668.41;1756643;80;20988;-43
2022/09/21 08:34:33;;;;;;;4.90;4.50;;;;;;;11.79;90.71;99664.51;1761106;80;21013;-43
2022/09/21 08:37:00;;;;;;;5.83;4.17;;;;;;;11.74;92.38;99667.19;1756652;80;21520;-43
2022/09/21 08:39:26;;;;;;;8.80;4.40;;;;;;;11.69;92.95;99669.88;1757844;80;20952;-43
2022/09/21 08:42:32;;;;;;;6.20;5.12;;;;;;;11.67;93.53;99662.48;1778004;79;21539;-43
2022/09/21 08:45:04;;;;;;;5.08;4.58;;;;;;;11.65;93.94;99658.14;1780263;79;21028;-43
2022/09/21 08:47:45;;;;;;;4.28;3.87;;;;;;;11.64;95.50;99657.28;1781576;79;20969;-43
2022/09/21 08:50:21;;;;;;;6.20;3.35;;;;;;;11.65;96.34;99670.83;1783639;77;21028;-43
2022/09/21 08:52:49;;;;;;;3.40;3.08;;;;;;;11.63;97.26;99675.65;1783124;79;21017;-43
2022/09/21 08:55:17;;;;;;;2.60;2.40;;;;;;;11.57;97.37;99684.45;1735184;81;21041;-43
2022/09/21 08:57:44;;;;;;;2.10;1.98;;;;;;;11.45;97.07;99689.42;1748071;80;21488;-43
2022/09/21 09:00:16;;;;;;;2.45;2.25;;;;;;;11.33;97.52;99673.87;1753888;80;20984;-44
2022/09/21 09:03:14;;;;;;;3.87;2.60;;;;;;;11.23;99.17;99679.23;1754631;80;20971;-44
2022/09/21 09:06:04;;;;;;;2.83;2.40;;;;;;;11.14;99.99;99686.33;1777688;79;21433;-44
2022/09/21 09:09:00;;;;;;;2.45;2.25;;;;;;;11.04;100.00;99682.08;1734241;81;21069;-44
2022/09/21 09:12:09;;;;;;;1.77;1.67;;;;;;;11.01;100.00;99686.02;1699434;81;21063;-43
2022/09/21 09:14:47;;;;;;;2.83;2.50;;;;;;;11.02;100.00;99685.17;1708718;83;21614;-37
2022/09/21 09:17:44;;;;;;;4.00;2.12;;;;;;;11.11;100.00;99683.73;1704493;83;21072;-37
2022/09/21 09:20:25;;;;;;;1.77;1.67;;;;;;;11.23;100.00;99687.09;1701828;83;21611;-43
2022/09/21 09:23:15;;;;;;;2.17;1.98;;;;;;;11.38;100.00;99679.05;1703779;83;21012;-42
2022/09/21 09:25:42;;;;;;;1.70;1.60;;;;;;;11.49;100.00;99676.30;1703791;83;21572;-36
2022/09/21 09:28:23;;;;;;;2.12;1.90;;;;;;;11.61;100.00;99681.36;1697943;83;21408;-37
2022/09/21 09:31:16;;;;;;;1.40;1.27;;;;;;;11.79;99.50;99679.78;1693436;82;21041;-37
2022/09/21 09:34:03;;;;;;;2.20;1.93;;;;;;;12.02;98.64;99680.78;1705447;83;21026;-44
2022/09/21 09:36:34;;;;;;;3.45;2.35;;;;;;;12.22;97.70;99668.65;1726864;81;21444;-43
2022/09/21 09:39:13;;;;;;;3.02;1.70;;;;;;;12.33;94.25;99668.02;1693136;83;21328;-43
2022/09/21 09:42:22;;;;;;;2.58;1.62;;;;;;;12.33;92.31;99670.65;1694966;83;21006;-43
2022/09/21 09:45:39;;;;;;;4.50;1.12;;;;;;;12.31;91.23;99668.51;1714012;80;21114;-36
2022/09/21 09:48:38;;;;;;;1.20;1.10;;;;;;;12.25;89.44;99678.66;1760381;80;21605;-43
2022/09/21 09:51:09;;;;;;;1.45;1.35;;;;;;;12.24;87.53;99674.76;1760893;80;21101;-37
2022/09/21 09:53:36;;;;;;;2.72;1.47;;;;;;;12.26;88.42;99675.59;1748619;80;20985;-37
2022/09/21 09:56:03;;;;;;;1.52;1.42;;;;;;;12.30;89.21;99681.21;1786302;78;21657;-38
2022/09/21 09:58:44;;;;;;;1.40;1.30;;;;;;;12.33;89.86;99688.14;1764307;80;21021;-36
2022/09/21 10:01:38;;;;;;;1.42;1.32;;;;;;;12.36;90.35;99677.62;1759798;80;21331;-36
2022/09/21 10:04:16;;;;;;;1.55;1.35;;;;;;;12.40;90.95;99681.45;1750682;80;21352;-36
2022/09/21 10:06:43;;;;;;;2.45;1.47;;;;;;;12.45;90.48;99682.69;1751117;80;20995;-36
2022/09/21 10:09:26;;;;;;;2.70;2.27;;;;;;;12.54;88.93;99683.85;1751491;80;21052;-43
2022/09/21 10:11:59;;;;;;;1.77;1.50;;;;;;;12.76;88.12;99672.08;1754379;80;21463;-43
2022/09/21 10:14:28;;;;;;;2.33;1.50;;;;;;;13.22;86.91;99665.06;1751221;80;20975;-36
2022/09/21 10:16:55;;;;;;;3.10;1.75;;;;;;;13.66;84.33;99659.31;1757372;80;20998;-43
2022/09/21 10:19:24;;;;;;;0.85;0.85;;;;;;;14.03;82.14;99658.88;1752463;80;20976;-36
2022/09/21 10:21:55;;;;;;;0.95;0.95;;;;;;;14.54;78.19;99656.30;1754042;81;21020;-43
2022/09/21 10:24:27;;;;;;;0.95;0.75;;;;;;;15.08;74.60;99652.63;1752610;80;20924;-43
2022/09/21 10:26:57;;;;;;;2.63;0.60;;;;;;;15.69;68.14;99657.42;1746697;81;21937;-36
2022/09/21 10:29:46;;;;;;;5.15;1.05;;;;;;;16.24;65.45;99656.13;1750222;80;21028;-43
2022/09/21 10:32:17;;;;;;;0.93;0.75;;;;;;;16.59;65.15;99657.56;1748034;81;21031;-43
2022/09/21 10:35:09;;;;;;;0.88;0.88;;;;;;;16.78;62.63;99655.17;1754440;80;21041;-44
2022/09/21 10:37:41;;;;;;;1.65;1.10;;;;;;;16.58;61.52;99666.84;1758065;80;20980;-36
2022/09/21 10:40:23;;;;;;;3.02;0.85;;;;;;;16.77;60.14;99669.76;1754514;80;21020;-37
2022/09/21 10:42:57;;;;;;;0.70;0.70;;;;;;;16.95;59.07;99669.10;1751937;81;21884;-36
2022/09/21 10:45:27;;;;;;;1.20;0.78;;;;;;;17.43;58.35;99653.66;1756539;80;21092;-37
2022/09/21 10:48:07;;;;;;;0.60;0.60;;;;;;;17.51;58.00;99653.78;1756279;80;21294;-43
2022/09/21 10:50:40;;;;;;;0.75;0.60;;;;;;;17.61;56.04;99654.73;1755572;81;21303;-37
2022/09/21 10:53:27;;;;;;;2.35;0.70;;;;;;;17.64;55.44;99655.48;1749777;81;20969;-44
2022/09/21 10:56:07;;;;;;;1.25;0.70;;;;;;;17.48;56.52;99660.49;1755343;80;21089;-44
2022/09/21 10:58:34;;;;;;;1.20;1.10;;;;;;;17.36;56.66;99662.75;1748875;80;21526;-37
2022/09/21 11:01:24;;;;;;;3.05;0.90;;;;;;;17.13;56.42;99664.46;1753054;79;20988;-36
2022/09/21 11:04:06;;;;;;;0.50;0.50;;;;;;;16.78;56.07;99668.38;1755773;80;21621;-37
2022/09/21 11:06:39;;;;;;;4.17;0.90;;;;;;;16.58;58.96;99668.16;1745027;80;20968;-36
2022/09/21 11:09:13;;;;;;;0.85;0.57;;;;;;;16.37;60.15;99671.95;1753117;80;21544;-44
2022/09/21 11:12:05;;;;;;;1.00;0.50;;;;;;;16.28;58.24;99668.28;1753483;80;21509;-44
2022/09/21 11:14:46;;;;;;;0.50;0.50;;;;;;;16.45;56.07;99684.42;1772071;79;21025;-44
2022/09/21 11:17:27;;;;;;;0.30;0.30;;;;;;;16.54;56.08;99672.70;1777165;79;21330;-45
2022/09/21 11:20:23;;;;;;;0.78;0.50;;;;;;;16.31;55.73;99673.48;1763330;80;21512;-44
2022/09/21 11:23:19;;;;;;;0.70;0.70;;;;;;;16.01;57.90;99672.70;1703925;82;21024;-44
2022/09/21 11:26:04;;;;;;;1.00;0.90;;;;;;;15.75;60.28;99686.69;1708196;82;22013;-45
2022/09/21 11:28:50;;;;;;;0.80;0.80;;;;;;;15.63;59.74;99682.66;1701293;82;21541;-44
2022/09/21 11:31:59;;;;;;;1.42;1.12;;;;;;;15.53;60.26;99682.48;1697243;82;21111;-46
2022/09/21 11:34:46;;;;;;;1.52;1.20;;;;;;;15.26;60.83;99685.49;1704219;82;20994;-45
2022/09/21 11:37:35;;;;;;;2.98;1.20;;;;;;;14.92;61.70;99686.89;1649948;85;21058;-44
2022/09/21 11:40:22;;;;;;;1.47;1.37;;;;;;;14.69;62.89;99687.95;1643536;86;21076;-45
2022/09/21 11:43:14;;;;;;;1.50;1.35;;;;;;;14.61;65.21;99689.45;1673268;84;21054;-45
2022/09/21 11:46:14;;;;;;;1.72;1.40;;;;;;;14.70;62.79;99690.54;1693819;83;21515;-44
2022/09/21 11:49:16;;;;;;;1.40;1.20;;;;;;;14.77;62.95;99685.97;1692674;83;21008;-37
2022/09/21 11:52:27;;;;;;;1.17;1.07;;;;;;;14.81;63.17;99696.39;1694975;83;21585;-44
2022/09/21 11:55:23;;;;;;;1.72;1.62;;;;;;;14.83;61.34;99694.56;1612931;87;21593;-44
2022/09/21 11:58:17;;;;;;;2.27;1.60;;;;;;;14.81;62.07;99688.48;1644081;85;21658;-43
2022/09/21 12:00:56;;;;;;;1.40;1.30;;;;;;;14.87;62.18;99696.22;1674566;84;21032;-44
2022/09/21 12:04:11;;;;;;;1.50;1.40;;;;;;;14.89;62.46;99682.55;1677898;84;21008;-36
2022/09/21 12:06:59;;;;;;;2.45;2.05;;;;;;;15.00;62.57;99689.30;1678146;84;21099;-42
2022/09/21 12:09:51;;;;;;;1.67;1.57;;;;;;;15.07;60.98;99693.03;1678150;84;21543;-36
2022/09/21 12:12:39;;;;;;;1.53;1.43;;;;;;;15.14;59.94;99701.66;1648084;85;21669;-35
2022/09/21 12:15:17;;;;;;;1.90;1.75;;;;;;;15.18;59.97;99703.27;1679800;84;21969;-36
2022/09/21 12:17:55;;;;;;;1.95;1.85;;;;;;;15.16;60.58;99703.78;1641888;85;21004;-36
2022/09/21 12:20:51;;;;;;;1.92;1.77;;;;;;;15.18;59.79;99699.32;1668390;84;21552;-37
2022/09/21 12:23:22;;;;;;;2.17;1.75;;;;;;;15.17;60.68;99700.23;1678022;84;21055;-38
2022/09/21 12:25:52;;;;;;;2.10;1.90;;;;;;;15.13;61.15;99699.90;1662739;84;21040;-37